Time;durP1;ratioP1;P1;durP2;ratioP2;P2;SDS_P1;SDS_P2;PMS_P1;PMS_P2;Temp;Humidity;BMP_temperature;BMP_pressure;BME280_temperature;BME280_humidity;BME280_pressure;Samples;Min_cycle;Max_cycle;Signal;HPM_P1;HPM_P2
2021/03/04 11:50:31;;;;;;;66.18;25.38;;;;;;;4.53;79.12;102032.22;5112623;27;963476;-63
2021/03/04 11:52:56;;;;;;;65.05;24.67;;;;;;;4.59;78.88;102028.09;5131305;27;20027;-64
2021/03/04 11:55:22;;;;;;;67.78;24.98;;;;;;;4.62;79.01;102025.63;5110589;27;20499;-69
2021/03/04 11:57:47;;;;;;;60.13;24.45;;;;;;;4.66;78.50;102028.47;5126233;27;20034;-69
2021/03/04 12:00:13;;;;;;;68.75;25.35;;;;;;;4.68;78.85;102021.56;5130304;27;20031;-69
2021/03/04 12:02:38;;;;;;;65.38;24.35;;;;;;;4.64;78.46;102024.88;5129860;27;20020;-70
2021/03/04 12:05:04;;;;;;;64.30;22.73;;;;;;;4.55;79.13;102021.81;5127331;27;20038;-70
2021/03/04 12:07:30;;;;;;;67.85;25.73;;;;;;;4.51;79.26;102018.19;5130981;27;20020;-69
2021/03/04 12:09:55;;;;;;;69.45;24.45;;;;;;;4.58;78.35;102021.06;5128626;27;20526;-69
2021/03/04 12:12:22;;;;;;;67.07;24.45;;;;;;;4.54;79.00;102018.31;5130593;27;20024;-68
2021/03/04 12:14:47;;;;;;;64.32;26.27;;;;;;;4.49;79.48;102017.19;5129473;27;20103;-69
2021/03/04 12:17:13;;;;;;;62.65;22.92;;;;;;;4.59;78.29;102015.00;5131623;27;20118;-69
2021/03/04 12:19:38;;;;;;;62.28;23.13;;;;;;;4.53;78.74;102016.50;5128002;28;20035;-69
2021/03/04 12:22:03;;;;;;;64.95;24.30;;;;;;;4.50;78.45;102021.59;5128077;28;20027;-69
2021/03/04 12:24:29;;;;;;;58.50;22.95;;;;;;;4.49;78.98;102000.59;5128076;27;20026;-69
2021/03/04 12:26:55;;;;;;;65.25;25.50;;;;;;;4.47;79.04;101999.59;5126467;27;20038;-63
2021/03/04 12:29:20;;;;;;;49.22;15.82;;;;;;;4.54;78.78;102010.47;5108038;28;20036;-63
2021/03/04 12:31:46;;;;;;;62.65;23.80;;;;;;;4.54;78.55;102002.59;5126391;27;20034;-63
2021/03/04 12:34:12;;;;;;;61.35;24.42;;;;;;;4.46;79.06;102009.19;5123812;27;20035;-64
2021/03/04 12:36:37;;;;;;;60.05;23.92;;;;;;;4.50;78.74;102005.91;5127046;27;20388;-63
2021/03/04 12:39:03;;;;;;;58.03;23.67;;;;;;;4.39;78.72;101996.63;5131168;27;20461;-63
2021/03/04 12:41:29;;;;;;;60.72;24.88;;;;;;;4.35;79.35;101989.44;5109595;27;20027;-63
2021/03/04 12:43:54;;;;;;;56.95;22.65;;;;;;;4.35;79.05;101989.44;5126798;27;20042;-65
2021/03/04 12:46:19;;;;;;;59.10;22.90;;;;;;;4.34;79.59;101988.56;5128026;27;20042;-64
2021/03/04 12:48:45;;;;;;;58.40;23.02;;;;;;;4.36;79.43;101983.38;5092262;28;20047;-71
2021/03/04 12:51:10;;;;;;;60.88;23.17;;;;;;;4.43;78.98;101992.44;5108513;28;20055;-72
2021/03/04 12:53:35;;;;;;;59.45;23.25;;;;;;;4.38;79.23;101988.69;5107865;28;20020;-72
2021/03/04 12:56:01;;;;;;;58.97;23.00;;;;;;;4.43;79.11;101985.47;5106371;28;20067;-71
2021/03/04 12:58:26;;;;;;;55.53;21.88;;;;;;;4.48;79.05;101985.69;5108592;28;20024;-71
2021/03/04 13:00:51;;;;;;;54.65;21.67;;;;;;;4.44;79.78;101979.44;5098807;28;20031;-71
2021/03/04 13:03:17;;;;;;;51.75;20.23;;;;;;;4.52;78.95;101982.41;5093329;28;20020;-72
2021/03/04 13:05:43;;;;;;;51.30;20.77;;;;;;;4.51;79.17;101991.97;5095351;28;20059;-71
2021/03/04 13:08:08;;;;;;;47.03;20.02;;;;;;;4.49;79.64;101988.38;5094214;28;20073;-71
2021/03/04 13:10:34;;;;;;;49.35;19.55;;;;;;;4.48;79.11;101983.94;5094097;28;20177;-71
2021/03/04 13:12:59;;;;;;;49.95;19.73;;;;;;;4.51;79.54;101985.81;5094139;28;20028;-71
2021/03/04 13:15:24;;;;;;;46.58;18.90;;;;;;;4.54;79.47;101984.28;5090868;28;20024;-71
2021/03/04 13:17:50;;;;;;;44.08;17.63;;;;;;;4.56;78.99;101984.34;5092483;28;20089;-71
2021/03/04 13:20:15;;;;;;;44.25;17.45;;;;;;;4.55;79.56;101977.28;5074808;28;20067;-71
2021/03/04 13:22:41;;;;;;;43.45;17.50;;;;;;;4.56;78.73;101979.09;5092096;28;20118;-72
2021/03/04 13:25:07;;;;;;;41.58;17.42;;;;;;;4.61;79.13;101974.06;5092396;28;20459;-72
2021/03/04 13:27:32;;;;;;;43.53;18.58;;;;;;;4.60;79.14;101974.88;5092670;28;20070;-69
2021/03/04 13:29:58;;;;;;;41.20;17.13;;;;;;;4.54;79.46;101973.78;5093745;28;20059;-71
2021/03/04 13:32:23;;;;;;;42.38;16.42;;;;;;;4.54;79.40;101971.16;5091053;28;20533;-71
2021/03/04 13:34:48;;;;;;;44.67;17.45;;;;;;;4.53;79.92;101979.84;5089185;28;20438;-70
2021/03/04 13:37:16;;;;;;;40.70;16.63;;;;;;;4.53;78.92;101979.84;5091044;28;20116;-68
2021/03/04 13:39:42;;;;;;;39.00;15.50;;;;;;;4.49;79.24;101987.50;5092673;28;20116;-71
2021/03/04 13:42:08;;;;;;;37.97;15.13;;;;;;;4.42;79.24;101982.78;5095436;28;20518;-72
2021/03/04 13:44:33;;;;;;;36.53;12.85;;;;;;;4.40;79.59;101981.78;5091541;28;20016;-72
2021/03/04 13:46:59;;;;;;;36.70;14.73;;;;;;;4.47;79.15;101989.13;5095963;28;20040;-72
2021/03/04 13:49:24;;;;;;;36.55;14.88;;;;;;;4.40;80.23;102006.28;5093706;28;20040;-71
2021/03/04 13:51:49;;;;;;;33.95;13.20;;;;;;;4.40;79.62;101993.19;5094116;28;20055;-71
2021/03/04 13:54:15;;;;;;;32.75;12.75;;;;;;;4.31;79.52;101996.25;5094765;28;20031;-71
2021/03/04 13:56:40;;;;;;;33.25;12.68;;;;;;;4.28;79.27;101993.50;5096007;28;20028;-71
2021/03/04 13:59:06;;;;;;;32.45;12.77;;;;;;;4.23;80.01;101978.38;5092977;28;20103;-69
2021/03/04 14:01:31;;;;;;;31.27;12.20;;;;;;;4.23;80.39;101987.13;5091540;28;20479;-70
2021/03/04 14:03:56;;;;;;;29.60;10.75;;;;;;;4.33;78.81;101984.13;5092875;28;20031;-70
2021/03/04 14:06:22;;;;;;;29.50;11.27;;;;;;;4.37;79.23;101979.94;5095359;28;20031;-70
2021/03/04 14:08:47;;;;;;;31.00;11.18;;;;;;;4.47;79.26;101976.94;5092159;28;20071;-70
2021/03/04 14:11:13;;;;;;;28.95;9.90;;;;;;;4.64;78.39;101977.72;5092565;28;20050;-69
2021/03/04 14:13:40;;;;;;;27.83;10.23;;;;;;;4.78;77.62;101980.09;5089329;28;20069;-69
2021/03/04 14:16:06;;;;;;;27.23;9.95;;;;;;;4.83;77.95;101974.22;5093090;28;20027;-70
2021/03/04 14:18:32;;;;;;;28.45;10.13;;;;;;;4.93;76.95;101982.53;5090751;28;20031;-70
2021/03/04 14:20:57;;;;;;;27.27;9.63;;;;;;;5.04;76.18;101981.28;5091798;28;20020;-69
2021/03/04 14:23:23;;;;;;;25.80;9.20;;;;;;;4.94;76.26;101986.94;5094038;28;20047;-70
2021/03/04 14:25:48;;;;;;;28.38;9.85;;;;;;;4.89;76.99;101977.16;5093837;28;20036;-70
2021/03/04 14:28:14;;;;;;;24.98;9.07;;;;;;;4.94;75.98;101981.72;5091367;28;20024;-70
2021/03/04 14:30:39;;;;;;;25.25;9.73;;;;;;;5.00;75.62;101982.84;5092683;28;20099;-70
2021/03/04 14:33:05;;;;;;;24.67;8.38;;;;;;;4.94;75.51;101979.09;5092880;28;20032;-70
2021/03/04 14:35:31;;;;;;;25.90;10.05;;;;;;;4.84;75.41;101980.38;5090444;28;20592;-70
2021/03/04 14:37:56;;;;;;;26.98;10.02;;;;;;;4.82;76.11;101976.78;5092149;28;20371;-70
2021/03/04 14:40:22;;;;;;;26.63;10.10;;;;;;;4.78;76.04;101975.75;5092185;28;20063;-69
2021/03/04 14:42:47;;;;;;;26.42;9.95;;;;;;;4.76;75.27;101972.19;5091777;28;20028;-69
2021/03/04 14:45:13;;;;;;;27.15;10.75;;;;;;;4.74;75.89;101971.19;5092528;28;20032;-69
2021/03/04 14:47:38;;;;;;;25.48;8.75;;;;;;;4.77;74.58;101968.69;5091815;28;20024;-69
2021/03/04 14:50:05;;;;;;;26.38;9.48;;;;;;;4.70;75.61;101975.41;5092715;28;20040;-70
2021/03/04 14:52:30;;;;;;;25.08;9.15;;;;;;;4.76;75.62;101972.19;5091916;28;20034;-69
2021/03/04 14:54:56;;;;;;;24.92;9.43;;;;;;;4.77;75.60;101976.56;5092275;28;20032;-69
2021/03/04 14:57:21;;;;;;;25.45;9.45;;;;;;;4.81;76.26;101978.50;5092806;28;20532;-69
2021/03/04 14:59:46;;;;;;;24.55;8.93;;;;;;;4.76;74.20;101972.19;5091984;28;20541;-69
2021/03/04 15:02:11;;;;;;;23.52;8.32;;;;;;;4.80;74.40;101974.09;5094615;28;20389;-72
2021/03/04 15:04:37;;;;;;;24.08;9.10;;;;;;;4.80;75.02;101973.19;5088897;28;20463;-67
2021/03/04 15:07:02;;;;;;;23.70;8.15;;;;;;;4.77;74.56;101971.31;5090823;28;20034;-69
2021/03/04 15:09:28;;;;;;;22.27;7.97;;;;;;;4.74;74.87;101965.94;5089942;28;20543;-67
2021/03/04 15:11:55;;;;;;;23.23;8.35;;;;;;;4.67;72.93;101971.72;5091272;28;20062;-68
2021/03/04 15:14:21;;;;;;;25.08;9.77;;;;;;;4.61;74.60;101964.47;5091587;28;20027;-67
2021/03/04 15:16:47;;;;;;;23.15;9.07;;;;;;;4.58;74.85;101961.72;5093078;28;20382;-68
2021/03/04 15:19:13;;;;;;;22.55;8.50;;;;;;;4.56;74.27;101960.75;5090859;28;20031;-61
2021/03/04 15:21:38;;;;;;;23.42;8.52;;;;;;;4.57;75.34;101953.78;5090783;28;20028;-61
2021/03/04 15:24:04;;;;;;;22.42;7.47;;;;;;;4.59;73.90;101955.66;5093650;28;20028;-60
2021/03/04 15:26:29;;;;;;;23.42;8.48;;;;;;;4.64;75.23;101958.50;5090645;28;20016;-60
2021/03/04 15:28:54;;;;;;;22.85;8.30;;;;;;;4.66;73.49;101954.22;5091123;28;20076;-60
2021/03/04 15:31:20;;;;;;;22.65;8.15;;;;;;;4.70;73.89;101956.16;5090073;28;20132;-60
2021/03/04 15:33:48;;;;;;;22.33;7.70;;;;;;;4.66;74.64;101955.13;5092800;28;20024;-60
2021/03/04 15:36:13;;;;;;;22.20;7.78;;;;;;;4.64;74.91;101956.75;5089707;28;20035;-60
2021/03/04 15:38:39;;;;;;;22.25;7.80;;;;;;;4.67;73.94;101958.63;5092919;28;20486;-60
2021/03/04 15:41:05;;;;;;;21.45;7.60;;;;;;;4.67;74.15;101958.63;5091867;28;20028;-60
2021/03/04 15:43:30;;;;;;;23.23;8.35;;;;;;;4.67;73.78;101963.88;5094224;28;20032;-61
2021/03/04 15:45:56;;;;;;;22.33;8.00;;;;;;;4.72;73.44;101962.38;5091916;28;20036;-62
2021/03/04 15:48:21;;;;;;;23.70;8.50;;;;;;;4.67;73.21;101958.63;5094261;28;20045;-61
2021/03/04 15:50:46;;;;;;;23.50;8.18;;;;;;;4.63;72.97;101964.53;5091560;28;20050;-61
2021/03/04 15:53:12;;;;;;;22.95;8.18;;;;;;;4.64;73.08;101964.63;5093945;28;20058;-68
2021/03/04 15:55:38;;;;;;;23.23;8.00;;;;;;;4.58;73.44;101966.06;5094222;28;20074;-68
2021/03/04 15:58:04;;;;;;;24.70;8.70;;;;;;;4.51;74.09;101954.41;5094864;28;20062;-62
2021/03/04 16:00:29;;;;;;;23.20;8.45;;;;;;;4.50;73.83;101966.63;5091372;28;20028;-61
2021/03/04 16:02:55;;;;;;;24.02;8.85;;;;;;;4.48;73.46;101970.84;5091214;28;20024;-60
2021/03/04 16:05:20;;;;;;;25.40;8.55;;;;;;;4.47;73.94;101963.84;5091036;28;20039;-61
2021/03/04 16:07:45;;;;;;;22.15;7.90;;;;;;;4.46;74.92;101962.03;5072848;28;20020;-61
2021/03/04 16:10:11;;;;;;;23.58;8.45;;;;;;;4.42;74.81;101964.47;5092278;28;20110;-68
2021/03/04 16:12:37;;;;;;;23.10;8.45;;;;;;;4.43;74.33;101964.53;5091420;28;20047;-68
2021/03/04 16:15:03;;;;;;;24.77;8.93;;;;;;;4.38;74.28;101963.41;5090707;28;20470;-68
2021/03/04 16:17:28;;;;;;;22.17;8.10;;;;;;;4.40;75.10;101960.84;5090515;28;20024;-67
2021/03/04 16:19:54;;;;;;;22.85;8.30;;;;;;;4.39;74.78;101962.59;5092007;28;20028;-62
2021/03/04 16:22:20;;;;;;;23.10;8.23;;;;;;;4.41;74.66;101966.16;5091303;28;20016;-66
2021/03/04 16:24:45;;;;;;;22.42;8.18;;;;;;;4.39;75.00;101959.97;5094087;28;20058;-63
2021/03/04 16:27:10;;;;;;;23.42;8.43;;;;;;;4.43;74.53;101968.88;5092269;28;20463;-61
2021/03/04 16:29:36;;;;;;;23.85;8.18;;;;;;;4.44;74.53;101970.66;5092462;28;20028;-61
2021/03/04 16:32:03;;;;;;;24.17;8.95;;;;;;;4.39;74.90;101975.66;5091033;28;20027;-62
2021/03/04 16:34:28;;;;;;;24.48;8.43;;;;;;;4.39;75.09;101973.06;5090632;28;20028;-62
2021/03/04 16:36:54;;;;;;;24.10;8.57;;;;;;;4.34;75.51;101978.06;5095117;28;20043;-70
2021/03/04 16:39:22;;;;;;;26.23;9.63;;;;;;;4.31;76.06;101977.94;5094543;28;20124;-70
2021/03/04 16:41:47;;;;;;;24.30;9.10;;;;;;;4.27;76.44;101969.88;5093582;28;20516;-71
2021/03/04 16:44:13;;;;;;;25.38;9.02;;;;;;;4.29;76.48;101978.69;5095362;28;20130;-70
2021/03/04 16:46:40;;;;;;;23.58;9.30;;;;;;;4.18;77.20;101984.28;5096410;28;20024;-70
2021/03/04 16:49:07;;;;;;;23.60;9.20;;;;;;;4.16;77.06;101988.53;5094853;28;20031;-71
2021/03/04 16:51:32;;;;;;;25.40;9.50;;;;;;;4.11;76.95;101983.94;5096069;28;20380;-71
2021/03/04 16:53:58;;;;;;;24.60;9.90;;;;;;;4.08;76.99;101982.06;5094168;28;20023;-71
2021/03/04 16:56:23;;;;;;;24.83;9.40;;;;;;;4.08;77.01;101984.66;5095211;28;20112;-71
2021/03/04 16:58:48;;;;;;;23.95;8.75;;;;;;;3.96;77.87;101986.66;5091530;28;20032;-70
2021/03/04 17:01:14;;;;;;;26.08;10.70;;;;;;;3.86;78.90;101990.56;5096356;28;20031;-71
2021/03/04 17:03:40;;;;;;;26.08;10.27;;;;;;;3.92;78.72;101995.22;5094360;28;20028;-71
2021/03/04 17:06:07;;;;;;;26.27;10.07;;;;;;;4.06;78.39;101983.69;5095071;28;20024;-70
2021/03/04 17:08:33;;;;;;;25.75;10.05;;;;;;;3.98;79.21;101987.66;5093427;28;20115;-70
2021/03/04 17:10:59;;;;;;;24.90;10.07;;;;;;;3.96;79.47;101984.03;5094194;28;20111;-70
2021/03/04 17:13:25;;;;;;;25.45;10.10;;;;;;;3.91;80.01;101996.03;5095584;28;20055;-70
2021/03/04 17:15:50;;;;;;;25.08;9.35;;;;;;;3.89;79.67;101993.34;5093900;28;20059;-70
2021/03/04 17:18:17;;;;;;;27.15;12.20;;;;;;;3.73;80.51;101996.91;5095316;28;20024;-70
2021/03/04 17:20:47;;;;;;;27.42;9.55;;;;;;;3.88;79.89;101991.53;5094165;28;20064;-70
2021/03/04 17:23:13;;;;;;;24.77;9.02;;;;;;;3.81;79.77;101999.88;5094107;28;20036;-70
2021/03/04 17:25:40;;;;;;;25.33;9.55;;;;;;;3.80;80.36;101999.00;5094864;28;20165;-70
2021/03/04 17:28:08;;;;;;;25.50;9.18;;;;;;;3.81;80.52;101997.28;5090219;28;20024;-69
2021/03/04 17:30:35;;;;;;;26.40;9.75;;;;;;;3.81;80.76;102007.72;5091941;28;20032;-69
2021/03/04 17:33:00;;;;;;;27.30;10.00;;;;;;;3.83;80.41;102003.50;5094202;28;20024;-70
2021/03/04 17:35:27;;;;;;;26.48;10.35;;;;;;;3.79;80.56;102006.78;5092559;28;20046;-70
2021/03/04 17:37:53;;;;;;;25.75;9.90;;;;;;;3.79;81.11;102005.03;5092990;28;20032;-71
2021/03/04 17:40:19;;;;;;;24.90;9.10;;;;;;;3.82;81.01;102001.69;5092237;28;20035;-71
2021/03/04 17:42:44;;;;;;;24.67;8.45;;;;;;;3.91;80.14;102009.09;5094554;28;20051;-70
2021/03/04 17:45:10;;;;;;;25.83;9.32;;;;;;;3.84;80.57;102011.41;5094909;28;20047;-69
2021/03/04 17:47:37;;;;;;;26.88;8.85;;;;;;;3.85;81.10;102017.53;5088742;28;20028;-68
2021/03/04 17:50:04;;;;;;;26.48;8.82;;;;;;;3.83;80.59;102020.06;5089864;28;20152;-67
2021/03/04 17:52:30;;;;;;;26.10;9.30;;;;;;;3.86;81.12;102021.97;5092560;28;20028;-68
2021/03/04 17:54:55;;;;;;;23.45;7.80;;;;;;;3.88;80.96;102022.91;5094031;28;20374;-69
2021/03/04 17:57:20;;;;;;;25.10;7.95;;;;;;;3.89;80.75;102029.03;5094355;28;20063;-68
2021/03/04 17:59:46;;;;;;;23.55;8.05;;;;;;;3.88;80.67;102035.13;5092489;28;20094;-69
2021/03/04 18:02:11;;;;;;;23.05;8.02;;;;;;;3.90;80.49;102034.34;5091791;28;20113;-68
2021/03/04 18:04:36;;;;;;;23.80;7.90;;;;;;;3.87;80.66;102039.44;5089491;28;20023;-71
2021/03/04 18:07:02;;;;;;;23.63;8.07;;;;;;;3.87;80.33;102041.16;5092586;28;20016;-71
2021/03/04 18:09:27;;;;;;;23.27;7.80;;;;;;;3.87;81.10;102046.38;5092661;28;20032;-71
2021/03/04 18:11:52;;;;;;;24.70;6.93;;;;;;;3.87;80.50;102039.44;5092899;28;20095;-67
2021/03/04 18:14:18;;;;;;;22.92;6.38;;;;;;;3.95;79.73;102037.22;5092658;28;20036;-66
2021/03/04 18:16:43;;;;;;;22.80;5.72;;;;;;;3.93;79.74;102046.69;5092112;28;20032;-69
2021/03/04 18:19:08;;;;;;;21.30;5.82;;;;;;;3.88;79.73;102043.84;5091621;28;20078;-71
2021/03/04 18:21:34;;;;;;;23.75;5.80;;;;;;;3.93;79.14;102041.47;5093337;28;20024;-68
2021/03/04 18:23:59;;;;;;;22.17;5.40;;;;;;;3.88;79.08;102040.34;5092040;28;20214;-69
2021/03/04 18:26:24;;;;;;;20.35;4.93;;;;;;;3.89;77.35;102047.34;5093650;28;20018;-71
2021/03/04 18:28:50;;;;;;;19.17;4.10;;;;;;;3.92;75.81;102045.81;5092369;28;20077;-71
2021/03/04 18:31:16;;;;;;;14.80;3.63;;;;;;;3.80;76.08;102040.84;5094431;28;20020;-70
2021/03/04 18:33:41;;;;;;;19.58;3.63;;;;;;;3.78;75.86;102047.72;5093321;28;20024;-70
2021/03/04 18:36:07;;;;;;;19.15;4.10;;;;;;;3.76;75.89;102049.34;5092072;28;20023;-70
2021/03/04 18:38:32;;;;;;;21.40;3.90;;;;;;;3.80;75.49;102053.00;5078810;28;20031;-71
2021/03/04 18:40:58;;;;;;;18.30;3.50;;;;;;;3.78;75.34;102042.47;5093323;28;20121;-67
2021/03/04 18:43:23;;;;;;;14.25;3.22;;;;;;;3.79;74.13;102048.63;5093543;28;20478;-67
2021/03/04 18:45:48;;;;;;;17.92;3.67;;;;;;;3.76;74.44;102049.34;5093233;28;20106;-68
2021/03/04 18:48:14;;;;;;;18.77;3.78;;;;;;;3.73;73.91;102048.28;5092302;28;20031;-67
2021/03/04 18:50:39;;;;;;;19.30;3.78;;;;;;;3.79;73.33;102053.84;5097507;28;20039;-67
2021/03/04 18:53:05;;;;;;;19.83;3.53;;;;;;;3.88;72.13;102056.03;5101908;28;20031;-68
2021/03/04 18:55:30;;;;;;;15.88;3.50;;;;;;;3.72;73.45;102056.97;5104919;28;20023;-67
2021/03/04 18:57:55;;;;;;;16.70;3.42;;;;;;;3.69;73.81;102048.97;5092522;28;20069;-69
2021/03/04 19:00:21;;;;;;;18.42;3.80;;;;;;;3.70;74.64;102053.38;5092773;28;20028;-68
2021/03/04 19:02:47;;;;;;;18.33;3.50;;;;;;;3.69;73.36;102057.72;5075928;28;20030;-68
2021/03/04 19:05:12;;;;;;;18.52;3.55;;;;;;;3.68;74.12;102045.44;5089209;28;20056;-68
2021/03/04 19:07:37;;;;;;;21.67;3.60;;;;;;;3.69;73.46;102055.09;5090882;28;20060;-67
2021/03/04 19:10:05;;;;;;;22.00;3.90;;;;;;;3.64;73.32;102053.94;5092285;28;20537;-67
2021/03/04 19:12:30;;;;;;;21.27;3.50;;;;;;;3.71;72.26;102061.28;5092885;28;20028;-65
2021/03/04 19:14:55;;;;;;;19.42;4.07;;;;;;;3.65;72.97;102050.50;5092425;28;20168;-64
2021/03/04 19:17:21;;;;;;;22.25;4.28;;;;;;;3.63;72.54;102054.78;5091419;28;20024;-64
2021/03/04 19:19:46;;;;;;;19.23;3.75;;;;;;;3.60;73.38;102058.13;5092769;28;20028;-63
2021/03/04 19:22:11;;;;;;;17.95;3.60;;;;;;;3.66;72.13;102058.44;5072809;28;20031;-64
2021/03/04 19:24:37;;;;;;;21.30;4.00;;;;;;;3.58;72.88;102056.25;5092836;28;20038;-64
2021/03/04 19:27:04;;;;;;;21.63;4.22;;;;;;;3.58;73.30;102057.16;5092638;28;20031;-63
2021/03/04 19:29:29;;;;;;;21.30;4.45;;;;;;;3.59;73.14;102058.94;5091721;28;20024;-70
2021/03/04 19:31:55;;;;;;;21.20;4.10;;;;;;;3.58;73.29;102061.47;5091297;28;20032;-64
2021/03/04 19:34:20;;;;;;;21.05;4.50;;;;;;;3.56;73.42;102061.41;5091968;28;20063;-63
2021/03/04 19:36:45;;;;;;;21.25;4.20;;;;;;;3.54;73.12;102064.75;5091072;28;20024;-63
2021/03/04 19:39:11;;;;;;;22.60;4.25;;;;;;;3.52;72.94;102069.88;5091463;28;20028;-62
2021/03/04 19:41:36;;;;;;;21.92;4.47;;;;;;;3.50;72.90;102074.16;5091137;28;20039;-62
2021/03/04 19:44:01;;;;;;;19.70;4.40;;;;;;;3.51;73.13;102077.66;5091492;28;20031;-60
2021/03/04 19:46:27;;;;;;;22.05;4.50;;;;;;;3.53;72.69;102082.16;5091263;28;20020;-62
2021/03/04 19:48:53;;;;;;;22.05;4.68;;;;;;;3.51;73.71;102077.66;5092749;28;20464;-60
2021/03/04 19:51:18;;;;;;;22.67;4.80;;;;;;;3.55;72.30;102079.63;5090553;28;20058;-61
2021/03/04 19:53:44;;;;;;;21.92;4.68;;;;;;;3.53;73.46;102079.53;5093986;28;20111;-63
2021/03/04 19:56:09;;;;;;;21.42;5.13;;;;;;;3.44;73.08;102085.19;5091411;28;20028;-63
2021/03/04 19:58:34;;;;;;;23.52;5.05;;;;;;;3.39;73.15;102083.13;5092350;28;20042;-65
2021/03/04 20:01:00;;;;;;;24.15;5.10;;;;;;;3.36;73.08;102082.97;5090925;28;20431;-62
2021/03/04 20:03:25;;;;;;;21.52;4.80;;;;;;;3.32;73.04;102092.38;5090817;28;20112;-63
2021/03/04 20:05:50;;;;;;;24.42;5.70;;;;;;;3.34;73.59;102098.59;5089935;28;20367;-65
2021/03/04 20:08:16;;;;;;;22.27;5.20;;;;;;;3.34;73.62;102101.19;5089170;28;20023;-62
2021/03/04 20:10:41;;;;;;;21.17;5.28;;;;;;;3.31;73.79;102101.91;5091672;28;20036;-63
2021/03/04 20:13:07;;;;;;;22.77;5.18;;;;;;;3.27;74.25;102099.06;5097586;28;20486;-61
2021/03/04 20:15:35;;;;;;;21.23;4.80;;;;;;;3.27;75.11;102106.91;5094727;28;20020;-63
2021/03/04 20:18:00;;;;;;;22.98;4.22;;;;;;;3.30;73.68;102107.06;5098121;28;20035;-61
2021/03/04 20:20:26;;;;;;;23.88;4.60;;;;;;;3.29;74.41;102107.88;5095760;28;20024;-61
2021/03/04 20:22:51;;;;;;;24.55;4.45;;;;;;;3.26;73.84;102115.56;5095852;28;20032;-61
2021/03/04 20:25:16;;;;;;;24.13;4.95;;;;;;;3.20;74.48;102112.63;5095072;28;20024;-62
2021/03/04 20:27:42;;;;;;;24.17;5.25;;;;;;;3.19;75.09;102116.03;5100708;28;20378;-61
2021/03/04 20:30:11;;;;;;;26.00;5.65;;;;;;;3.13;74.13;102121.81;5094201;28;20031;-62
2021/03/04 20:32:36;;;;;;;25.20;5.50;;;;;;;3.13;74.70;102109.66;5095741;28;20040;-62
2021/03/04 20:35:04;;;;;;;23.33;5.00;;;;;;;3.16;73.57;102127.25;5095780;28;20040;-64
2021/03/04 20:37:29;;;;;;;23.15;4.90;;;;;;;3.19;74.56;102119.56;5103064;28;20406;-62
2021/03/04 20:39:54;;;;;;;23.83;5.18;;;;;;;3.12;73.70;102120.94;5104616;28;20032;-63
2021/03/04 20:42:19;;;;;;;25.75;5.60;;;;;;;3.12;74.61;102131.38;5096056;28;20032;-63
2021/03/04 20:44:45;;;;;;;23.35;5.00;;;;;;;3.07;74.85;102121.50;5105515;28;20047;-65
2021/03/04 20:47:10;;;;;;;26.92;5.75;;;;;;;3.04;74.11;102130.03;5106765;28;20484;-64
2021/03/04 20:49:35;;;;;;;25.50;4.60;;;;;;;3.00;74.52;102127.19;5103914;28;20036;-65
2021/03/04 20:52:01;;;;;;;24.40;4.53;;;;;;;2.96;74.93;102128.75;5107778;28;20179;-61
2021/03/04 20:54:27;;;;;;;24.58;4.47;;;;;;;3.01;74.95;102142.94;5104674;28;20515;-63
2021/03/04 20:56:53;;;;;;;26.30;4.78;;;;;;;2.97;75.02;102135.75;5106763;28;20109;-62
2021/03/04 20:59:19;;;;;;;26.10;4.85;;;;;;;2.99;73.38;102134.13;5105891;28;20462;-63
2021/03/04 21:01:44;;;;;;;22.77;4.50;;;;;;;2.95;73.30;102140.88;5105726;28;20030;-67
2021/03/04 21:04:09;;;;;;;20.52;4.07;;;;;;;2.96;73.60;102141.81;5106886;28;20129;-67
2021/03/04 21:06:35;;;;;;;21.48;4.32;;;;;;;2.96;73.55;102139.19;5104291;28;20020;-64
2021/03/04 21:09:00;;;;;;;24.80;4.28;;;;;;;2.95;73.93;102143.50;5107536;28;20016;-65
2021/03/04 21:11:25;;;;;;;24.55;4.63;;;;;;;3.04;72.96;102148.34;5104355;28;20032;-65
2021/03/04 21:13:51;;;;;;;24.63;4.60;;;;;;;2.95;73.79;102158.28;5105967;28;20110;-66
2021/03/04 21:16:16;;;;;;;23.45;4.35;;;;;;;2.94;74.08;102151.25;5087790;28;20076;-65
2021/03/04 21:18:42;;;;;;;21.70;4.22;;;;;;;2.96;74.41;102152.25;5095376;28;20031;-65
2021/03/04 21:21:07;;;;;;;22.88;4.40;;;;;;;2.95;73.82;102153.94;5094882;28;20150;-66
2021/03/04 21:23:32;;;;;;;24.67;4.30;;;;;;;2.96;73.40;102166.22;5095365;28;20031;-65
2021/03/04 21:25:58;;;;;;;23.02;4.38;;;;;;;2.95;74.03;102158.28;5106631;28;20031;-66
2021/03/04 21:28:23;;;;;;;23.30;4.40;;;;;;;2.94;74.15;102170.47;5104529;28;20030;-65
2021/03/04 21:30:49;;;;;;;22.15;4.20;;;;;;;2.96;72.76;102168.81;5095498;28;20024;-67
2021/03/04 21:33:14;;;;;;;24.52;4.30;;;;;;;2.96;73.29;102167.94;5104877;28;20035;-65
2021/03/04 21:35:39;;;;;;;25.77;4.70;;;;;;;2.93;73.41;102175.59;5106541;28;20035;-65
2021/03/04 21:38:05;;;;;;;25.10;4.40;;;;;;;2.99;73.80;102169.81;5103368;28;20032;-65
2021/03/04 21:40:30;;;;;;;21.20;4.43;;;;;;;3.03;72.42;102172.69;5106988;28;20080;-65
2021/03/04 21:42:56;;;;;;;22.23;4.15;;;;;;;2.99;72.48;102172.44;5103990;28;20035;-65
2021/03/04 21:45:22;;;;;;;23.70;4.50;;;;;;;2.97;72.73;102174.94;5105590;28;20024;-64
2021/03/04 21:47:47;;;;;;;25.23;5.05;;;;;;;3.01;71.71;102176.91;5104733;28;20046;-66
2021/03/04 21:50:14;;;;;;;22.20;4.65;;;;;;;2.99;72.11;102175.06;5104073;28;20044;-64
2021/03/04 21:52:39;;;;;;;22.20;4.30;;;;;;;2.94;71.95;102174.75;5106112;28;20031;-65
2021/03/04 21:55:06;;;;;;;20.80;4.57;;;;;;;2.97;71.63;102180.16;5094603;28;20533;-66
2021/03/04 21:57:31;;;;;;;23.50;4.65;;;;;;;2.99;71.26;102181.16;5098907;28;20489;-64
2021/03/04 21:59:57;;;;;;;21.05;4.63;;;;;;;3.01;70.66;102178.63;5106147;28;20024;-65
2021/03/04 22:02:22;;;;;;;20.23;4.35;;;;;;;2.95;70.90;102181.78;5104293;28;20526;-65
2021/03/04 22:04:48;;;;;;;19.50;4.05;;;;;;;2.92;70.74;102179.91;5094644;28;20515;-65
2021/03/04 22:07:13;;;;;;;22.48;4.30;;;;;;;2.88;70.17;102177.91;5101778;28;20028;-60
2021/03/04 22:09:39;;;;;;;20.40;4.00;;;;;;;2.90;70.70;102178.03;5094238;28;20035;-59
2021/03/04 22:12:04;;;;;;;21.95;4.43;;;;;;;2.89;68.94;102179.72;5105574;28;20080;-59
2021/03/04 22:14:30;;;;;;;23.02;4.15;;;;;;;2.83;70.29;102176.78;5103344;28;20039;-60
2021/03/04 22:16:55;;;;;;;20.08;3.80;;;;;;;2.93;67.77;102186.06;5093949;28;20034;-61
2021/03/04 22:19:21;;;;;;;21.50;4.00;;;;;;;2.81;68.00;102180.09;5103649;28;20051;-59
2021/03/04 22:21:46;;;;;;;21.90;3.53;;;;;;;2.77;66.07;102186.88;5087409;28;20020;-59
2021/03/04 22:24:11;;;;;;;21.10;3.60;;;;;;;2.75;67.35;102194.63;5102951;28;20035;-60
2021/03/04 22:26:39;;;;;;;18.88;3.70;;;;;;;2.75;67.77;102194.63;5105516;28;20072;-59
2021/03/04 22:29:05;;;;;;;22.08;4.10;;;;;;;2.74;68.10;102195.44;5102727;28;20068;-59
2021/03/04 22:31:30;;;;;;;23.65;3.85;;;;;;;2.78;66.85;102194.81;5094053;28;20067;-59
2021/03/04 22:33:56;;;;;;;21.80;4.13;;;;;;;2.88;67.64;102200.53;5103158;28;20031;-59
2021/03/04 22:36:21;;;;;;;20.67;3.83;;;;;;;2.81;65.61;102204.53;5104861;28;20039;-59
2021/03/04 22:38:46;;;;;;;20.55;3.80;;;;;;;2.76;65.55;102195.53;5093952;28;20051;-60
2021/03/04 22:41:13;;;;;;;20.98;3.80;;;;;;;2.73;65.97;102201.47;5093764;28;20055;-60
2021/03/04 22:43:39;;;;;;;20.52;4.03;;;;;;;2.74;66.91;102205.88;5105763;28;20027;-63
2021/03/04 22:46:04;;;;;;;20.92;3.75;;;;;;;2.76;65.69;102209.47;5103052;28;20028;-60
2021/03/04 22:48:29;;;;;;;22.80;3.95;;;;;;;2.73;64.27;102209.28;5104174;28;20382;-60
2021/03/04 22:50:55;;;;;;;22.70;4.18;;;;;;;2.79;64.60;102214.88;5103874;28;20047;-61
2021/03/04 22:53:20;;;;;;;22.40;4.20;;;;;;;2.77;65.55;102211.28;5093911;28;20069;-60
2021/03/04 22:55:45;;;;;;;19.77;3.80;;;;;;;2.92;63.20;102215.59;5102227;28;20027;-63
2021/03/04 22:58:11;;;;;;;21.33;4.10;;;;;;;2.82;63.18;102208.03;5105751;28;20099;-60
2021/03/04 23:00:36;;;;;;;20.70;4.15;;;;;;;2.81;62.06;102206.22;5102044;28;20035;-63
2021/03/04 23:03:03;;;;;;;18.85;4.00;;;;;;;2.89;61.72;102202.34;5093554;28;20064;-64
2021/03/04 23:05:29;;;;;;;21.75;4.20;;;;;;;2.79;62.47;102204.41;5104079;28;20038;-60